Flight Track Log - Related Links

Times and Time Zones

All times are in EDT time to prevent confusion due to time zone crossing. See the SWA1521 flight status page for this flight to view local times or setup timezone preferences in your user account.

Time Position Orientation Groundspeed Altitude Reporting Facility
EDT Latitude Longitude Course Direction KTS MPH feet Rate Location/Type
Fri 09:10:47 PM 47.4344 -122.3075 180° South 165 190 1,100  Level Seattle Center
Fri 09:11:20 PM 47.4153 -122.3075 180° South 166 191 2,000 1,959 Climbing Seattle Center
Fri 09:11:36 PM 47.3931 -122.3106 185° South 194 223 2,700 2,361 Climbing Seattle Center
Fri 09:12:21 PM 47.3547 -122.3089 178° South 220 253 4,400 3,113 Climbing Seattle Center
Fri 09:13:22 PM 47.2806 -122.3092 180° South 264 304 8,200 3,541 Climbing Seattle Center
Fri 09:14:23 PM 47.1850 -122.2886 172° South 315 362 11,600 3,246 Climbing Seattle Center
Fri 09:15:24 PM 47.0956 -122.2383 159° South 348 400 14,800 3,098 Climbing Seattle Center
Fri 09:16:25 PM 46.9997 -122.1878 160° South 369 425 17,900 2,656 Climbing Seattle Center
Fri 09:17:26 PM 46.8983 -122.1356 161° South 386 444 20,200 2,311 Climbing Seattle Center
Fri 09:18:27 PM 46.7903 -122.0906 164° South 406 467 22,600 2,311 Climbing Seattle Center
Fri 09:19:28 PM 46.6781 -122.0997 183° South 407 468 24,900 2,016 Climbing Seattle Center
Fri 09:20:29 PM 46.5603 -122.1103 184° South 423 487 26,700 1,869 Climbing Seattle Center
Fri 09:21:30 PM 46.4400 -122.1156 182° South 433 498 28,700 2,066 Climbing Seattle Center
Fri 09:22:31 PM 46.2906 -122.1131 179° South 450 518 30,900 2,182 Climbing Seattle Center
Fri 09:23:31 PM 46.1625 -122.1036 177° South 455 524 33,100 1,884 Climbing Seattle Center
Fri 09:24:32 PM 46.0414 -122.0978 178° South 440 506 34,700 1,426 Climbing Seattle Center
Fri 09:25:33 PM 45.9153 -122.0842 176° South 448 516 36,000 1,180 Climbing Seattle Center
Fri 09:26:34 PM 45.7836 -122.0631 174° South 470 541 37,100 1,230 Climbing Seattle Center
Fri 09:27:35 PM 45.6553 -122.0522 177° South 463 533 38,500 885 Climbing Seattle Center
Fri 09:28:36 PM 45.5294 -122.0408 176° South 455 524 38,900 246 Climbing Seattle Center
Fri 09:29:37 PM 45.4017 -122.0275 176° South 460 529 39,000 50 Climbing Seattle Center
Fri 09:30:37 PM 45.2750 -122.0158 176° South 455 524 39,000  Level Seattle Center
Fri 09:31:38 PM 45.1486 -122.0047 176° South 455 524 39,000  Level Seattle Center
Fri 09:32:39 PM 45.0194 -121.9914 176° South 462 532 39,000  Level Seattle Center
Fri 09:33:40 PM 44.8925 -121.9775 176° South 459 528 39,000  Level Seattle Center
Fri 09:34:41 PM 44.7694 -121.9647 176° South 454 522 39,000  Level Seattle Center
Fri 09:35:42 PM 44.6425 -121.9536 176° South 455 524 39,000  Level Seattle Center
Fri 09:36:42 PM 44.5167 -121.9417 176° South 452 520 39,000  Level Seattle Center
Fri 09:37:43 PM 44.3656 -121.9272 176° South 452 520 39,000  Level Seattle Center
Fri 09:38:44 PM 44.2383 -121.9164 177° South 456 525 39,000  Level Seattle Center
Fri 09:39:45 PM 44.1144 -121.9058 176° South 447 514 39,000  Level Seattle Center
Fri 09:40:46 PM 43.9892 -121.8933 176° South 448 516 39,000  Level Seattle Center
Fri 09:41:47 PM 43.8653 -121.8825 176° South 446 513 39,000  Level Seattle Center
Fri 09:42:47 PM 43.7522 -121.8728 176° South 448 516 39,000  Level Seattle Center
Fri 09:43:48 PM 43.6267 -121.8603 176° South 451 519 39,000  Level Seattle Center
Fri 09:44:49 PM 43.4986 -121.8486 176° South 459 528 39,000  Level Seattle Center
Fri 09:45:50 PM 43.3722 -121.8364 176° South 457 526 39,000  Level Seattle Center
Fri 09:46:51 PM 43.2464 -121.8253 176° South 452 520 39,000  Level Seattle Center
Fri 09:47:52 PM 43.1217 -121.8136 176° South 450 518 39,000  Level Seattle Center
Fri 09:48:52 PM 42.9975 -121.8050 177° South 448 516 39,000  Level Seattle Center
Fri 09:49:53 PM 42.8475 -121.7922 176° South 450 518 39,000  Level Seattle Center
Fri 09:50:54 PM 42.7208 -121.7800 176° South 452 520 39,000  Level Seattle Center
Fri 09:51:55 PM 42.5950 -121.7689 176° South 453 521 39,000  Level Seattle Center
Fri 09:52:56 PM 42.4689 -121.7569 176° South 453 521 39,000  Level Seattle Center
Fri 09:53:56 PM 42.3408 -121.7447 176° South 456 525 39,000  Level Seattle Center
Fri 09:54:57 PM 42.2136 -121.7322 176° South 454 522 39,000  Level Seattle Center
Fri 09:55:58 PM 42.0839 -121.7267 178° South 457 526 39,000  Level Seattle Center
Fri 09:56:59 PM 41.9558 -121.7275 180° South 451 519 39,000  Level Seattle Center
Fri 09:58:00 PM 41.8281 -121.7264 180° South 451 519 39,000  Level Seattle Center
Fri 09:59:00 PM 41.7014 -121.7219 178° South 452 520 39,000  Level Seattle Center
Fri 10:00:01 PM 41.5753 -121.7144 177° South 453 521 39,000  Level Seattle Center
Fri 10:01:02 PM 41.4497 -121.7092 178° South 451 519 39,000  Level Seattle Center
Fri 10:02:03 PM 41.3236 -121.7036 178° South 451 519 39,000  Level Seattle Center
Fri 10:03:04 PM 41.1994 -121.6983 178° South 447 514 39,000  Level Seattle Center
Fri 10:04:04 PM 41.0750 -121.6917 178° South 445 512 39,000 -347 Level Seattle Center
Fri 10:05:05 PM 40.9519 -121.6864 178° South 443 510 38,300 -836 Descending Seattle Center
Fri 10:06:06 PM 40.8150 -121.6772 177° South 447 514 37,300 -1,328 Descending Seattle Center
Fri 10:07:07 PM 40.6911 -121.6731 179° South 446 513 35,600 -2,262 Descending Seattle Center
Fri 10:08:08 PM 40.5642 -121.6681 178° South 451 519 32,700 -2,607 Descending Seattle Center
Fri 10:09:09 PM 40.4383 -121.6619 178° South 451 519 30,300 -2,311 Descending Seattle Center
Fri 10:10:10 PM 40.3172 -121.6556 178° South 437 503 28,000 -2,164 Descending Seattle Center
Fri 10:11:11 PM 40.1994 -121.6503 178° South 424 488 25,900 -2,132 Descending Seattle Center
Fri 10:12:11 PM 40.0842 -121.6450 178° South 414 476 23,700 -2,053 Descending Seattle Center
Fri 10:12:27 PM 40.0625 -121.6428 176° South 413 475 23,300 -1,870 Descending Oakland Center
Fri 10:13:28 PM 39.9522 -121.6392 179° South 401 461 21,300 -1,967 Descending Oakland Center
Fri 10:14:29 PM 39.8442 -121.6339 178° South 392 451 19,300 -1,869 Descending Oakland Center
Fri 10:15:30 PM 39.7394 -121.6306 179° South 382 440 17,500 -2,115 Descending Oakland Center
Fri 10:16:31 PM 39.6172 -121.6242 178° South 370 426 15,000 -2,213 Descending Oakland Center
Fri 10:17:32 PM 39.5175 -121.6206 178° South 362 417 13,000 -1,951 Descending Oakland Center
Fri 10:18:34 PM 39.4206 -121.6158 178° South 350 403 11,000 -1,512 Descending Oakland Center
Fri 10:19:35 PM 39.3286 -121.6131 179° South 335 386 9,900 -1,131 Descending Oakland Center
Fri 10:20:36 PM 39.2475 -121.6094 178° South 302 348 8,700 -1,623 Descending Oakland Center
Fri 10:21:37 PM 39.1686 -121.6047 177° South 288 331 6,600 -1,770 Descending Oakland Center
Fri 10:22:38 PM 39.0872 -121.6019 178° South 290 334 5,100 -1,366 Descending Oakland Center
Fri 10:23:40 PM 39.0103 -121.5969 177° South 284 327 3,800 -1,122 Descending Oakland Center
Fri 10:24:41 PM 38.9325 -121.5981 181° South 281 323 2,800 -724 Descending Oakland Center
Fri 10:25:36 PM 38.8667 -121.6000 181° South 234 269 2,400 -522 Descending Northern Cal TRACON
Fri 10:26:36 PM 38.8000 -121.6000 180° South 199 229 1,800 -700 Descending Northern Cal TRACON
Fri 10:27:36 PM 38.7667 -121.6000 180° South 148 170 1,000 -714 Descending Northern Cal TRACON
Fri 10:28:42 PM 38.7167 -121.6000 180° South 128 147 300 -636 Descending Northern Cal TRACON
Fri 10:30:00 PM 38.6954 -121.5908 180° South  Level Estimated
Fri 10:37:00 PM 38.6954 -121.5908 180° South  Level Estimated
Fri 10:38:00 PM 38.6954 -121.5908 180° South  Level Estimated

Login

Don't have an account? Register now (free) for customized features, flight alerts, and more!